Karin IV — YT2496 — position and weather

sailwx.info

Track history (hours):
 
Tides and Currents Weather Stations Pressure Air Temp Water Temp Dewpoint Dewpoint Depression Visibility Wind Speed Wind Dir Waves Ship Positions

Karin IV

Last reported at 2018-Feb-19 12:11 UTC. Time now 2018-Feb-22 09:11 UTC.
Position N 45°11' E 019°59'.

Length 105 m; draft 0.2 m.

Type: Tanker. MMSI: 279202496.

Date/timePositionNaut miles runAvg speedWind from/ knotsBaromVisibWave heightAir tempDewpointWater temp
2018-Feb-19 12:11N 45°11' E 019°59'0 0.0
2018-Feb-19 11:59N 45°11' E 019°59'0 0.0
2018-Feb-19 11:24N 45°11' E 019°59'0 0.0
2018-Feb-19 11:00N 45°11' E 019°59'0 0.0
2018-Feb-19 10:30N 45°11' E 019°59'0 0.0
2018-Feb-19 10:00N 45°11' E 019°59'0 0.0
2018-Feb-19 07:48N 45°11' E 019°59'0 0.0
2018-Feb-19 07:30N 45°11' E 019°59'0 0.0
2018-Feb-19 06:57N 45°11' E 019°59'0 0.0
2018-Feb-19 06:30N 45°11' E 019°59'0 0.0
2018-Feb-19 06:00N 45°11' E 019°59'0 0.0
2018-Feb-19 05:30N 45°11' E 019°59'0 0.0
2018-Feb-19 05:00N 45°11' E 019°59'0 0.0
2018-Feb-19 04:30N 45°11' E 019°59'0 0.0
2018-Feb-19 04:00N 45°11' E 019°59'0 0.0
2018-Feb-19 03:27N 45°11' E 019°59'0 0.0
2018-Feb-19 03:00N 45°11' E 019°59'0 0.0
2018-Feb-19 02:30N 45°11' E 019°59'0 0.0
2018-Feb-19 02:00N 45°11' E 019°59'0 0.0
2018-Feb-19 01:30N 45°11' E 019°59'0 0.0
2018-Feb-19 01:00N 45°11' E 019°59'0 0.0
2018-Feb-19 00:30N 45°11' E 019°59'0 0.0
2018-Feb-19 00:00N 45°11' E 019°59'0 0.0
2018-Feb-18 23:30N 45°11' E 019°59'0 0.0
2018-Feb-18 23:00N 45°11' E 019°59'0 0.0
2018-Feb-18 22:30N 45°11' E 019°59'0 0.0
2018-Feb-18 22:00N 45°11' E 019°59'0 0.0
2018-Feb-18 21:30N 45°11' E 019°59'0 0.0
2018-Feb-18 21:00N 45°11' E 019°59'0 0.0
2018-Feb-18 20:30N 45°11' E 019°59'0 0.0
2018-Feb-18 20:00N 45°11' E 019°59'0 0.0
2018-Feb-18 19:30N 45°11' E 019°59'0 0.0
2018-Feb-18 19:00N 45°11' E 019°59'0 0.0
2018-Feb-18 18:30N 45°11' E 019°59'0 0.0
2018-Feb-18 18:00N 45°11' E 019°59'0 0.0
2018-Feb-18 17:27N 45°11' E 019°59'0 0.0
2018-Feb-18 17:00N 45°11' E 019°59'0 0.0
2018-Feb-18 16:30N 45°11' E 019°59'0 0.0
2018-Feb-18 16:00N 45°11' E 019°59'0 0.2
2018-Feb-18 15:30N 45°11' E 019°59'3 6.9
2018-Feb-18 15:00N 45°10' E 020°04'4 7.2
2018-Feb-18 14:30N 45°11' E 020°09'3 6.9
2018-Feb-18 14:00N 45°10' E 020°14'4 7.4
2018-Feb-18 13:30N 45°07' E 020°17'4 7.1
2018-Feb-18 12:55N 45°04' E 020°21'3 7.1
2018-Feb-18 12:30N 45°01' E 020°22'3 6.8
2018-Feb-18 12:00N 44°59' E 020°18'3 6.9
2018-Feb-18 11:30N 44°56' E 020°19'4 7.2
2018-Feb-18 11:00N 44°53' E 020°22'4 7.3
2018-Feb-18 10:30N 44°51' E 020°26'3 7.0
2018-Feb-18 10:00N 44°50' E 020°31'0 0.7
2018-Feb-18 09:30N 44°49' E 020°31'0 0.0
2018-Feb-18 09:00N 44°49' E 020°31'0 0.0
2018-Feb-18 08:30N 44°49' E 020°31'0 0.0
2018-Feb-18 07:57N 44°49' E 020°31'0 0.0
2018-Feb-18 07:28N 44°49' E 020°31'0 0.0
2018-Feb-18 06:58N 44°49' E 020°31'0 0.0
2018-Feb-18 06:28N 44°49' E 020°31'0 0.0
2018-Feb-18 06:00N 44°49' E 020°31'0 0.0
2018-Feb-18 05:30N 44°49' E 020°31'0 0.0
2018-Feb-18 05:00N 44°49' E 020°31'0 0.0
2018-Feb-18 04:30N 44°49' E 020°31'0 0.0
2018-Feb-18 04:00N 44°49' E 020°31'0 0.0
2018-Feb-18 03:30N 44°49' E 020°31'0 0.0
2018-Feb-18 03:00N 44°49' E 020°31'0 0.0
2018-Feb-18 02:29N 44°49' E 020°31'0 0.0
2018-Feb-18 01:59N 44°49' E 020°31'0 0.0
2018-Feb-18 01:30N 44°49' E 020°31'0 0.0
2018-Feb-18 01:00N 44°49' E 020°31'0 0.0
2018-Feb-18 00:30N 44°49' E 020°31'0 0.0
2018-Feb-17 23:59N 44°49' E 020°31'0 0.0
2018-Feb-17 23:29N 44°49' E 020°31'0 0.0
2018-Feb-17 23:00N 44°49' E 020°31'0 0.0
2018-Feb-17 22:30N 44°49' E 020°31'0 0.0
2018-Feb-17 22:00N 44°49' E 020°31'0 0.0
2018-Feb-17 21:30N 44°49' E 020°31'0 0.0
2018-Feb-17 21:00N 44°49' E 020°31'0 0.0
2018-Feb-17 20:30N 44°49' E 020°31'0 0.0
2018-Feb-17 20:00N 44°49' E 020°31'0 0.0
2018-Feb-17 19:30N 44°49' E 020°31'0 0.0
2018-Feb-17 19:00N 44°49' E 020°31'2 4.7
2018-Feb-17 18:30N 44°50' E 020°28'4 9.0
2018-Feb-17 18:01N 44°52' E 020°22'4 8.9
2018-Feb-17 17:31N 44°56' E 020°19'4 7.8
2018-Feb-17 17:00N 44°60' E 020°19'4 7.2
2018-Feb-17 16:30N 45°03' E 020°21'5 9.3
2018-Feb-17 16:01N 45°07' E 020°18'4 8.9
2018-Feb-17 15:30N 45°10' E 020°14'4 8.3
2018-Feb-17 15:01N 45°10' E 020°08'5 9.1
2018-Feb-17 14:30N 45°10' E 020°01'2 4.0
2018-Feb-17 14:01N 45°11' E 019°59'3 6.7
2018-Feb-17 13:31N 45°13' E 019°56'3 3.6
2018-Feb-17 12:49N 45°15' E 019°54'0 0.0
2018-Feb-17 12:18N 45°15' E 019°54'0 0.0
2018-Feb-17 11:47N 45°15' E 019°54'0 0.0
2018-Feb-17 11:24N 45°15' E 019°54'0 0.0
2018-Feb-17 10:56N 45°15' E 019°54'0 0.0
2018-Feb-17 10:25N 45°15' E 019°54'0 0.0
2018-Feb-17 10:00N 45°15' E 019°54'0 0.0
2018-Feb-17 09:16N 45°15' E 019°54'0 0.0
2018-Feb-17 08:42N 45°15' E 019°54'0 0.0
2018-Feb-17 08:30N 45°15' E 019°54'0 0.0
2018-Feb-17 07:42N 45°15' E 019°54'0 0.0
2018-Feb-17 07:30N 45°15' E 019°54'0 0.0
2018-Feb-17 06:44N 45°15' E 019°54'0 0.0
2018-Feb-17 06:29N 45°15' E 019°54'0 0.0
2018-Feb-17 05:58N 45°15' E 019°54'0 0.0
2018-Feb-17 05:28N 45°15' E 019°54'0 0.0
2018-Feb-17 04:58N 45°15' E 019°54'0 0.0
2018-Feb-17 04:29N 45°15' E 019°54'0 0.0
2018-Feb-17 03:51N 45°15' E 019°54'0 0.0
2018-Feb-17 03:30N 45°15' E 019°54'0 0.0
2018-Feb-17 03:00N 45°15' E 019°54'0 0.0
2018-Feb-17 02:14N 45°15' E 019°54'0 0.0
2018-Feb-17 01:59N 45°15' E 019°54'0 0.0
2018-Feb-17 01:30N 45°15' E 019°54'0 0.0
2018-Feb-17 01:00N 45°15' E 019°54'0 0.0
2018-Feb-17 00:10N 45°15' E 019°54'0 0.0
2018-Feb-16 23:51N 45°15' E 019°54'0 0.0
2018-Feb-16 23:29N 45°15' E 019°54'0 0.0
2018-Feb-16 22:54N 45°15' E 019°54'0 0.0
2018-Feb-16 22:29N 45°15' E 019°54'0 0.0
2018-Feb-16 21:59N 45°15' E 019°54'0 0.0
2018-Feb-16 21:16N 45°15' E 019°54'0 0.0
2018-Feb-16 21:01N 45°15' E 019°54'0 0.0
2018-Feb-16 20:30N 45°15' E 019°54'0 0.0
2018-Feb-16 20:00N 45°15' E 019°54'0 0.0
2018-Feb-16 19:30N 45°15' E 019°54'0 0.0
2018-Feb-16 18:38N 45°15' E 019°54'0 0.0
2018-Feb-16 18:16N 45°15' E 019°54'0 0.0
2018-Feb-16 18:00N 45°15' E 019°54'2 3.0
2018-Feb-16 17:30N 45°15' E 019°52'3 6.5
2018-Feb-16 17:00N 45°13' E 019°47'4 7.1
2018-Feb-16 16:30N 45°14' E 019°42'11 6.3
2018-Feb-16 14:44N 45°14' E 019°27'2 7.5
2018-Feb-16 14:31N 45°14' E 019°24'4 7.4
2018-Feb-16 14:00N 45°14' E 019°19'5 7.6
2018-Feb-16 13:18N 45°16' E 019°12'2 7.5
2018-Feb-16 13:01N 45°17' E 019°09'3 6.5
2018-Feb-16 12:31N 45°19' E 019°06'3 6.5
2018-Feb-16 12:00N 45°21' E 019°02'4 7.0
2018-Feb-16 11:30N 45°23' E 018°58'3 6.5
2018-Feb-16 11:01N 45°25' E 019°02'3 6.6
2018-Feb-16 10:30N 45°28' E 018°59'2 4.8
2018-Feb-16 10:00N 45°29' E 019°02'3 6.3
2018-Feb-16 09:30N 45°31' E 019°06'3 6.7
2018-Feb-16 09:00N 45°32' E 019°02'3 5.0
2018-Feb-16 08:30N 45°32' E 018°58'3 7.0
2018-Feb-16 08:00N 45°34' E 018°54'3 6.0
2018-Feb-16 07:30N 45°36' E 018°54'3 6.6
2018-Feb-16 07:00N 45°39' E 018°57'3 5.4
2018-Feb-16 06:30N 45°42' E 018°55'4 7.1
2018-Feb-16 06:00N 45°45' E 018°54'3 6.7
2018-Feb-16 05:30N 45°48' E 018°51'3 5.5
2018-Feb-16 05:00N 45°51' E 018°52'0 0.0
2018-Feb-16 01:02N 45°50' E 018°52'0 0.0
2018-Feb-15 17:29N 45°51' E 018°52'2 4.7
2018-Feb-15 17:00N 45°52' E 018°50'3 6.9
2018-Feb-15 16:30N 45°55' E 018°47'  
2018-Feb-11 08:51N 45°54' E 018°49'2 5.8
2018-Feb-11 08:30N 45°53' E 018°50'2 1.7
2018-Feb-11 07:19N 45°51' E 018°52'1 4.5
2018-Feb-11 07:00N 45°49' E 018°51'3 5.1
2018-Feb-11 06:30N 45°47' E 018°52'3 5.5
2018-Feb-11 06:00N 45°45' E 018°54'3 6.0
2018-Feb-11 05:30N 45°42' E 018°55'2 4.5
2018-Feb-11 04:58N 45°40' E 018°58'0 0.0
2018-Feb-11 04:28N 45°40' E 018°58'0 0.0
2018-Feb-11 03:58N 45°40' E 018°58'0 0.0
2018-Feb-11 03:29N 45°40' E 018°58'0 0.0
2018-Feb-11 02:59N 45°40' E 018°58'0 0.0
2018-Feb-11 02:29N 45°40' E 018°58'0 0.0
2018-Feb-11 01:58N 45°40' E 018°58'0 0.0
2018-Feb-11 01:28N 45°40' E 018°58'0 0.0
2018-Feb-11 00:58N 45°40' E 018°58'0 0.0
2018-Feb-11 00:28N 45°40' E 018°58'0 0.0
2018-Feb-10 23:58N 45°40' E 018°58'0 0.0
2018-Feb-10 23:29N 45°40' E 018°58'0 0.0
2018-Feb-10 22:59N 45°40' E 018°58'0 0.0
2018-Feb-10 22:29N 45°40' E 018°58'0 0.0
2018-Feb-10 21:59N 45°40' E 018°58'0 0.0
2018-Feb-10 21:29N 45°40' E 018°58'0 0.0
2018-Feb-10 20:58N 45°40' E 018°58'0 0.0
2018-Feb-10 20:29N 45°40' E 018°58'0 0.0
2018-Feb-10 19:58N 45°40' E 018°58'0 0.0
2018-Feb-10 19:28N 45°40' E 018°58'0 0.0
2018-Feb-10 18:58N 45°40' E 018°58'0 0.0
2018-Feb-10 18:28N 45°40' E 018°58'1 1.1
2018-Feb-10 18:00N 45°40' E 018°58'3 5.9
2018-Feb-10 17:30N 45°38' E 018°55'2 4.4
2018-Feb-10 17:00N 45°35' E 018°54'2 4.0
2018-Feb-10 16:30N 45°34' E 018°54'3 5.7
2018-Feb-10 16:00N 45°32' E 018°57'3 5.3
2018-Feb-10 15:30N 45°33' E 019°01'2 4.5
2018-Feb-10 15:00N 45°32' E 019°03'3 5.2
2018-Feb-10 14:30N 45°30' E 019°06'3 5.4
2018-Feb-10 14:00N 45°29' E 019°03'2 4.7
2018-Feb-10 13:31N 45°29' E 018°60'3 5.6
2018-Feb-10 13:00N 45°26' E 018°60'2 4.7
2018-Feb-10 12:30N 45°24' E 019°01'3 5.1
2018-Feb-10 11:59N 45°23' E 018°58'3 6.2
2018-Feb-10 11:30N 45°21' E 019°01'3 5.9
2018-Feb-10 11:00N 45°20' E 019°05'3 5.6
2018-Feb-10 10:30N 45°18' E 019°07'3 5.8
2018-Feb-10 10:00N 45°16' E 019°10'3 5.7
2018-Feb-10 09:30N 45°15' E 019°14'3 5.6
2018-Feb-10 09:00N 45°14' E 019°18'3 6.1
2018-Feb-10 08:30N 45°14' E 019°22'3 5.8
2018-Feb-10 08:01N 45°14' E 019°26'10 5.0
2018-Feb-10 06:06N 45°13' E 019°40'1 6.1
2018-Feb-10 05:58N 45°14' E 019°41'3 6.1
2018-Feb-10 05:27N 45°14' E 019°45'  
Track history (hours):
 
Tides and Currents Weather Stations Pressure Air Temp Water Temp Dewpoint Dewpoint Depression Visibility Wind Speed Wind Dir Waves Ship Positions

Karin IV

Last reported at 2018-Feb-19 12:11 UTC. Time now 2018-Feb-22 09:11 UTC.
Position N 45°11' E 019°59'.

Length 105 m; draft 0.2 m.

Type: Tanker. MMSI: 279202496.

Date/timePositionNaut miles runAvg speedWind from/ knotsBaromVisibWave heightAir tempDewpointWater temp
2018-Feb-19 12:11N 45°11' E 019°59'0 0.0
2018-Feb-19 11:59N 45°11' E 019°59'0 0.0
2018-Feb-19 11:24N 45°11' E 019°59'0 0.0
2018-Feb-19 11:00N 45°11' E 019°59'0 0.0
2018-Feb-19 10:30N 45°11' E 019°59'0 0.0
2018-Feb-19 10:00N 45°11' E 019°59'0 0.0
2018-Feb-19 07:48N 45°11' E 019°59'0 0.0
2018-Feb-19 07:30N 45°11' E 019°59'0 0.0
2018-Feb-19 06:57N 45°11' E 019°59'0 0.0
2018-Feb-19 06:30N 45°11' E 019°59'0 0.0
2018-Feb-19 06:00N 45°11' E 019°59'0 0.0
2018-Feb-19 05:30N 45°11' E 019°59'0 0.0
2018-Feb-19 05:00N 45°11' E 019°59'0 0.0
2018-Feb-19 04:30N 45°11' E 019°59'0 0.0
2018-Feb-19 04:00N 45°11' E 019°59'0 0.0
2018-Feb-19 03:27N 45°11' E 019°59'0 0.0
2018-Feb-19 03:00N 45°11' E 019°59'0 0.0
2018-Feb-19 02:30N 45°11' E 019°59'0 0.0
2018-Feb-19 02:00N 45°11' E 019°59'0 0.0
2018-Feb-19 01:30N 45°11' E 019°59'0 0.0
2018-Feb-19 01:00N 45°11' E 019°59'0 0.0
2018-Feb-19 00:30N 45°11' E 019°59'0 0.0
2018-Feb-19 00:00N 45°11' E 019°59'0 0.0
2018-Feb-18 23:30N 45°11' E 019°59'0 0.0
2018-Feb-18 23:00N 45°11' E 019°59'0 0.0
2018-Feb-18 22:30N 45°11' E 019°59'0 0.0
2018-Feb-18 22:00N 45°11' E 019°59'0 0.0
2018-Feb-18 21:30N 45°11' E 019°59'0 0.0
2018-Feb-18 21:00N 45°11' E 019°59'0 0.0
2018-Feb-18 20:30N 45°11' E 019°59'0 0.0
2018-Feb-18 20:00N 45°11' E 019°59'0 0.0
2018-Feb-18 19:30N 45°11' E 019°59'0 0.0
2018-Feb-18 19:00N 45°11' E 019°59'0 0.0
2018-Feb-18 18:30N 45°11' E 019°59'0 0.0
2018-Feb-18 18:00N 45°11' E 019°59'0 0.0
2018-Feb-18 17:27N 45°11' E 019°59'0 0.0
2018-Feb-18 17:00N 45°11' E 019°59'0 0.0
2018-Feb-18 16:30N 45°11' E 019°59'0 0.0
2018-Feb-18 16:00N 45°11' E 019°59'0 0.2
2018-Feb-18 15:30N 45°11' E 019°59'3 6.9
2018-Feb-18 15:00N 45°10' E 020°04'4 7.2
2018-Feb-18 14:30N 45°11' E 020°09'3 6.9
2018-Feb-18 14:00N 45°10' E 020°14'4 7.4
2018-Feb-18 13:30N 45°07' E 020°17'4 7.1
2018-Feb-18 12:55N 45°04' E 020°21'3 7.1
2018-Feb-18 12:30N 45°01' E 020°22'3 6.8
2018-Feb-18 12:00N 44°59' E 020°18'3 6.9
2018-Feb-18 11:30N 44°56' E 020°19'4 7.2
2018-Feb-18 11:00N 44°53' E 020°22'4 7.3
2018-Feb-18 10:30N 44°51' E 020°26'3 7.0
2018-Feb-18 10:00N 44°50' E 020°31'0 0.7
2018-Feb-18 09:30N 44°49' E 020°31'0 0.0
2018-Feb-18 09:00N 44°49' E 020°31'0 0.0
2018-Feb-18 08:30N 44°49' E 020°31'0 0.0
2018-Feb-18 07:57N 44°49' E 020°31'0 0.0
2018-Feb-18 07:28N 44°49' E 020°31'0 0.0
2018-Feb-18 06:58N 44°49' E 020°31'0 0.0
2018-Feb-18 06:28N 44°49' E 020°31'0 0.0
2018-Feb-18 06:00N 44°49' E 020°31'0 0.0
2018-Feb-18 05:30N 44°49' E 020°31'0 0.0
2018-Feb-18 05:00N 44°49' E 020°31'0 0.0
2018-Feb-18 04:30N 44°49' E 020°31'0 0.0
2018-Feb-18 04:00N 44°49' E 020°31'0 0.0
2018-Feb-18 03:30N 44°49' E 020°31'0 0.0
2018-Feb-18 03:00N 44°49' E 020°31'0 0.0
2018-Feb-18 02:29N 44°49' E 020°31'0 0.0
2018-Feb-18 01:59N 44°49' E 020°31'0 0.0
2018-Feb-18 01:30N 44°49' E 020°31'0 0.0
2018-Feb-18 01:00N 44°49' E 020°31'0 0.0
2018-Feb-18 00:30N 44°49' E 020°31'0 0.0
2018-Feb-17 23:59N 44°49' E 020°31'0 0.0
2018-Feb-17 23:29N 44°49' E 020°31'0 0.0
2018-Feb-17 23:00N 44°49' E 020°31'0 0.0
2018-Feb-17 22:30N 44°49' E 020°31'0 0.0
2018-Feb-17 22:00N 44°49' E 020°31'0 0.0
2018-Feb-17 21:30N 44°49' E 020°31'0 0.0
2018-Feb-17 21:00N 44°49' E 020°31'0 0.0
2018-Feb-17 20:30N 44°49' E 020°31'0 0.0
2018-Feb-17 20:00N 44°49' E 020°31'0 0.0
2018-Feb-17 19:30N 44°49' E 020°31'0 0.0
2018-Feb-17 19:00N 44°49' E 020°31'2 4.7
2018-Feb-17 18:30N 44°50' E 020°28'4 9.0
2018-Feb-17 18:01N 44°52' E 020°22'4 8.9
2018-Feb-17 17:31N 44°56' E 020°19'4 7.8
2018-Feb-17 17:00N 44°60' E 020°19'4 7.2
2018-Feb-17 16:30N 45°03' E 020°21'5 9.3
2018-Feb-17 16:01N 45°07' E 020°18'4 8.9
2018-Feb-17 15:30N 45°10' E 020°14'4 8.3
2018-Feb-17 15:01N 45°10' E 020°08'5 9.1
2018-Feb-17 14:30N 45°10' E 020°01'2 4.0
2018-Feb-17 14:01N 45°11' E 019°59'3 6.7
2018-Feb-17 13:31N 45°13' E 019°56'3 3.6
2018-Feb-17 12:49N 45°15' E 019°54'0 0.0
2018-Feb-17 12:18N 45°15' E 019°54'0 0.0
2018-Feb-17 11:47N 45°15' E 019°54'0 0.0
2018-Feb-17 11:24N 45°15' E 019°54'0 0.0
2018-Feb-17 10:56N 45°15' E 019°54'0 0.0
2018-Feb-17 10:25N 45°15' E 019°54'0 0.0
2018-Feb-17 10:00N 45°15' E 019°54'0 0.0
2018-Feb-17 09:16N 45°15' E 019°54'0 0.0
2018-Feb-17 08:42N 45°15' E 019°54'0 0.0
2018-Feb-17 08:30N 45°15' E 019°54'0 0.0
2018-Feb-17 07:42N 45°15' E 019°54'0 0.0
2018-Feb-17 07:30N 45°15' E 019°54'0 0.0
2018-Feb-17 06:44N 45°15' E 019°54'0 0.0
2018-Feb-17 06:29N 45°15' E 019°54'0 0.0
2018-Feb-17 05:58N 45°15' E 019°54'0 0.0
2018-Feb-17 05:28N 45°15' E 019°54'0 0.0
2018-Feb-17 04:58N 45°15' E 019°54'0 0.0
2018-Feb-17 04:29N 45°15' E 019°54'0 0.0
2018-Feb-17 03:51N 45°15' E 019°54'0 0.0
2018-Feb-17 03:30N 45°15' E 019°54'0 0.0
2018-Feb-17 03:00N 45°15' E 019°54'0 0.0
2018-Feb-17 02:14N 45°15' E 019°54'0 0.0
2018-Feb-17 01:59N 45°15' E 019°54'0 0.0
2018-Feb-17 01:30N 45°15' E 019°54'0 0.0
2018-Feb-17 01:00N 45°15' E 019°54'0 0.0
2018-Feb-17 00:10N 45°15' E 019°54'0 0.0
2018-Feb-16 23:51N 45°15' E 019°54'0 0.0
2018-Feb-16 23:29N 45°15' E 019°54'0 0.0
2018-Feb-16 22:54N 45°15' E 019°54'0 0.0
2018-Feb-16 22:29N 45°15' E 019°54'0 0.0
2018-Feb-16 21:59N 45°15' E 019°54'0 0.0
2018-Feb-16 21:16N 45°15' E 019°54'0 0.0
2018-Feb-16 21:01N 45°15' E 019°54'0 0.0
2018-Feb-16 20:30N 45°15' E 019°54'0 0.0
2018-Feb-16 20:00N 45°15' E 019°54'0 0.0
2018-Feb-16 19:30N 45°15' E 019°54'0 0.0
2018-Feb-16 18:38N 45°15' E 019°54'0 0.0
2018-Feb-16 18:16N 45°15' E 019°54'0 0.0
2018-Feb-16 18:00N 45°15' E 019°54'2 3.0
2018-Feb-16 17:30N 45°15' E 019°52'3 6.5
2018-Feb-16 17:00N 45°13' E 019°47'4 7.1
2018-Feb-16 16:30N 45°14' E 019°42'11 6.3
2018-Feb-16 14:44N 45°14' E 019°27'2 7.5
2018-Feb-16 14:31N 45°14' E 019°24'4 7.4
2018-Feb-16 14:00N 45°14' E 019°19'5 7.6
2018-Feb-16 13:18N 45°16' E 019°12'2 7.5
2018-Feb-16 13:01N 45°17' E 019°09'3 6.5
2018-Feb-16 12:31N 45°19' E 019°06'3 6.5
2018-Feb-16 12:00N 45°21' E 019°02'4 7.0
2018-Feb-16 11:30N 45°23' E 018°58'3 6.5
2018-Feb-16 11:01N 45°25' E 019°02'3 6.6
2018-Feb-16 10:30N 45°28' E 018°59'2 4.8
2018-Feb-16 10:00N 45°29' E 019°02'3 6.3
2018-Feb-16 09:30N 45°31' E 019°06'3 6.7
2018-Feb-16 09:00N 45°32' E 019°02'3 5.0
2018-Feb-16 08:30N 45°32' E 018°58'3 7.0
2018-Feb-16 08:00N 45°34' E 018°54'3 6.0
2018-Feb-16 07:30N 45°36' E 018°54'3 6.6
2018-Feb-16 07:00N 45°39' E 018°57'3 5.4
2018-Feb-16 06:30N 45°42' E 018°55'4 7.1
2018-Feb-16 06:00N 45°45' E 018°54'3 6.7
2018-Feb-16 05:30N 45°48' E 018°51'3 5.5
2018-Feb-16 05:00N 45°51' E 018°52'0 0.0
2018-Feb-16 01:02N 45°50' E 018°52'0 0.0
2018-Feb-15 17:29N 45°51' E 018°52'2 4.7
2018-Feb-15 17:00N 45°52' E 018°50'3 6.9
2018-Feb-15 16:30N 45°55' E 018°47'  
2018-Feb-11 08:51N 45°54' E 018°49'2 5.8
2018-Feb-11 08:30N 45°53' E 018°50'2 1.7
2018-Feb-11 07:19N 45°51' E 018°52'1 4.5
2018-Feb-11 07:00N 45°49' E 018°51'3 5.1
2018-Feb-11 06:30N 45°47' E 018°52'3 5.5
2018-Feb-11 06:00N 45°45' E 018°54'3 6.0
2018-Feb-11 05:30N 45°42' E 018°55'2 4.5
2018-Feb-11 04:58N 45°40' E 018°58'0 0.0
2018-Feb-11 04:28N 45°40' E 018°58'0 0.0
2018-Feb-11 03:58N 45°40' E 018°58'0 0.0
2018-Feb-11 03:29N 45°40' E 018°58'0 0.0
2018-Feb-11 02:59N 45°40' E 018°58'0 0.0
2018-Feb-11 02:29N 45°40' E 018°58'0 0.0
2018-Feb-11 01:58N 45°40' E 018°58'0 0.0
2018-Feb-11 01:28N 45°40' E 018°58'0 0.0
2018-Feb-11 00:58N 45°40' E 018°58'0 0.0
2018-Feb-11 00:28N 45°40' E 018°58'0 0.0
2018-Feb-10 23:58N 45°40' E 018°58'0 0.0
2018-Feb-10 23:29N 45°40' E 018°58'0 0.0
2018-Feb-10 22:59N 45°40' E 018°58'0 0.0
2018-Feb-10 22:29N 45°40' E 018°58'0 0.0
2018-Feb-10 21:59N 45°40' E 018°58'0 0.0
2018-Feb-10 21:29N 45°40' E 018°58'0 0.0
2018-Feb-10 20:58N 45°40' E 018°58'0 0.0
2018-Feb-10 20:29N 45°40' E 018°58'0 0.0
2018-Feb-10 19:58N 45°40' E 018°58'0 0.0
2018-Feb-10 19:28N 45°40' E 018°58'0 0.0
2018-Feb-10 18:58N 45°40' E 018°58'0 0.0
2018-Feb-10 18:28N 45°40' E 018°58'1 1.1
2018-Feb-10 18:00N 45°40' E 018°58'3 5.9
2018-Feb-10 17:30N 45°38' E 018°55'2 4.4
2018-Feb-10 17:00N 45°35' E 018°54'2 4.0
2018-Feb-10 16:30N 45°34' E 018°54'3 5.7
2018-Feb-10 16:00N 45°32' E 018°57'3 5.3
2018-Feb-10 15:30N 45°33' E 019°01'2 4.5
2018-Feb-10 15:00N 45°32' E 019°03'3 5.2
2018-Feb-10 14:30N 45°30' E 019°06'3 5.4
2018-Feb-10 14:00N 45°29' E 019°03'2 4.7
2018-Feb-10 13:31N 45°29' E 018°60'3 5.6
2018-Feb-10 13:00N 45°26' E 018°60'2 4.7
2018-Feb-10 12:30N 45°24' E 019°01'3 5.1
2018-Feb-10 11:59N 45°23' E 018°58'3 6.2
2018-Feb-10 11:30N 45°21' E 019°01'3 5.9
2018-Feb-10 11:00N 45°20' E 019°05'3 5.6
2018-Feb-10 10:30N 45°18' E 019°07'3 5.8
2018-Feb-10 10:00N 45°16' E 019°10'3 5.7
2018-Feb-10 09:30N 45°15' E 019°14'3 5.6
2018-Feb-10 09:00N 45°14' E 019°18'3 6.1
2018-Feb-10 08:30N 45°14' E 019°22'3 5.8
2018-Feb-10 08:01N 45°14' E 019°26'10 5.0
2018-Feb-10 06:06N 45°13' E 019°40'1 6.1
2018-Feb-10 05:58N 45°14' E 019°41'3 6.1
2018-Feb-10 05:27N 45°14' E 019°45'  

Dump ship's entire track history